CYHZ/YHZ METAR and TAF weather

Enter ICAO airport designator
Station Type Date Time Source
CYHZ METAR 2020/02/19 11:24 UTC NOAA

CYHZ 191124Z 26010KT 15SM FEW005 OVC077 04/04 A2968 RMK SF2AC6 SLP058


Station Type Date Time Source
CYHZ Decoded METAR 2020/02/19 11:24 UTC NOAA

Halifax International Airport , Canada (CYHZ) 44-53N 063-30W
Feb 19, 2020 - 06:24 AM EST / 2020.02.19 1124 UTC
Wind: from the W (260 degrees) at 12 MPH (10 KT):0
Visibility: 15 mile(s):0
Sky conditions: overcast
Temperature: 39 F (4 C)
Dew Point: 39 F (4 C)
Relative Humidity: 100%
Pressure (altimeter): 29.68 in. Hg (1005 hPa)
ob: CYHZ 191124Z 26010KT 15SM FEW005 OVC077 04/04 A2968 RMK SF2AC6 SLP058
cycle: 11

Station Type Date Time Source
CYHZ TAF 2020/02/19 09:39 UTC NOAA

TAF CYHZ 190838Z 1909/2006 17012KT 3/4SM -RA BR OVC002
TEMPO 1909/1912 6SM -RA OVC006
BECMG 1910/1912 26015G25KT
FM191200 26015G28KT 6SM -RA BR OVC008
FM191400 27015G25KT P6SM OVC015
FM191600 27015G25KT P6SM SCT025
FM191900 27015G25KT P6SM BKN030
FM192200 29015G25KT 6SM -SHSN BKN025 PROB40 1922/2002 2SM -SHSN
FM200300 29015G25KT P6SM BKN030
RMK NXT FCST BY 191200Z

Example: see airport list